Nearby METAR Reports

 

KO22 - Columbia, California, USA
Distance from station: SSW 15mi, 25km
Updated: Mon, 21-Aug-2017 6:55am PDT
Clear
Clear
 Wind from calm
Wind: Calm
Temperature: 63°F , 17°C
Dew Point: 55°F , 13°C
Humidity: 77%
Barometer: 29.99 inHg , 1015.6 hPa
Clouds: Clear
Visibility: 10 miles , 16 km
2017/08/21 13:55 KO22 211355Z AUTO 00000KT 10SM CLR 17/13 A2999 RMK AO1
KPVF - Placerville, California, USA
Distance from station: NW 39mi, 63km
Updated: Thu, 03-Aug-2017 10:55am PDT
NOT Current
Clear
Clear
 Wind from SW
Wind: SW 6 mph , 9 km/h
Temperature: 90°F , 32°C
Dew Point: 48°F , 9°C
Humidity: 24%
Barometer: 30.08 inHg , 1018.6 hPa
Clouds: Clear
Visibility: 10 miles , 16 km
2017/08/03 17:55 KPVF 031755Z AUTO 23005KT 10SM CLR 32/09 A3008 RMK AO1
 
KBAN - Bridgeport(Mcmwt, California, USA
Distance from station: E 45mi, 73km
Updated: Mon, 21-Aug-2017 6:52am PDT
Clear
Clear
 Wind from calm
Wind: Calm
Temperature: 41°F , 5°C
Dew Point: 36°F , 2°C
Humidity: 81%
Barometer: 30.28 inHg , 1025.4 hPa
Clouds: Clear
Visibility: 10 miles , 16 km
2017/08/21 13:52 KBAN 211352Z AUTO 00000KT 10SM CLR 05/02 A3028 RMK AO2 SLP181 T00500017
KTVL - South Lake Tahoe, California, USA
Distance from station: NNE 49mi, 78km
Updated: Mon, 21-Aug-2017 6:53am PDT
Clear
Clear
 Wind from S
Wind: S 3 mph , 6 km/h
Temperature: 45°F , 7°C
Dew Point: 43°F , 6°C
Humidity: 93%
Barometer: 30.24 inHg , 1024 hPa
Clouds: Clear
Visibility: 10 miles , 16 km
2017/08/21 13:53 KTVL 211353Z AUTO 18003KT 10SM CLR 07/06 A3024 RMK AO2 SLP198 T00720056
 
KSCK - Stockton, California, USA
Distance from station: WSW 54mi, 87km
Updated: Mon, 21-Aug-2017 6:55am PDT
Clear
Clear
 Wind from NW
Wind: NW 7 mph , 11 km/h
Temperature: 63°F , 17°C
Dew Point: 61°F , 16°C
Humidity: 94%
Barometer: 29.93 inHg , 1013.5 hPa
Clouds: Clear
Visibility: 8 miles , 13 km
2017/08/21 13:55 KSCK 211355Z 32006KT 8SM CLR 17/16 A2993 RMK AO2 SLP133 T01720156
KMHR - Mather Field, California, USA
Distance from station: WNW 54mi, 88km
Updated: Mon, 21-Aug-2017 6:45am PDT
Clear
Clear
 Wind from SSE
Wind: SSE 8 mph , 13 km/h
Temperature: 61°F , 16°C
Dew Point: 57°F , 14°C
Humidity: 88%
Barometer: 29.92 inHg , 1013.2 hPa
Clouds: Clear
Visibility: 10 miles , 16 km
2017/08/21 13:45 KMHR 211345Z 15007KT 10SM SKC 16/14 A2992
 
KMOD - Modesto, California, USA
Distance from station: SW 55mi, 88km
Updated: Mon, 21-Aug-2017 6:53am PDT
Clear
Clear
 Wind from NW
Wind: NW 9 mph , 15 km/h
Temperature: 64°F , 18°C
Dew Point: 59°F , 15°C
Humidity: 83%
Barometer: 29.92 inHg , 1013.2 hPa
Clouds: Clear
Visibility: 10 miles , 16 km
2017/08/21 13:53 KMOD 211353Z 32008KT 10SM CLR 18/15 A2992 RMK AO2 SLP131 T01830150
KMER - Merced/Castle Af, California, USA
Distance from station: S 61mi, 98km
Updated: Mon, 21-Aug-2017 6:45am PDT
Clear
Clear
 Wind from NNW
Wind: NNW 12 mph , 19 km/h
Temperature: 64°F , 18°C
Dew Point: 57°F , 14°C
Humidity: 78%
Barometer: 29.92 inHg , 1013.2 hPa
Clouds: Clear
Visibility: 8 miles , 13 km
2017/08/21 13:45 KMER 211345Z 33010KT 8SM SKC 18/14 A2992
 
KAUN - Auburn Muni, California, USA
Distance from station: NW 63mi, 101km
Updated: Mon, 21-Aug-2017 6:55am PDT
Clear
Clear
 Wind from SE
Wind: SE 7 mph , 11 km/h
Temperature: 66°F , 19°C
Dew Point: 64°F , 18°C
Humidity: 94%
Barometer: 29.95 inHg , 1014.2 hPa
Clouds: Clear
Visibility: 10 miles , 16 km
2017/08/21 13:55 KAUN 211355Z AUTO 14006KT 10SM CLR 19/18 A2995 RMK AO1
KMCC - Mcclellan Afb, California, USA
Distance from station: WNW 64mi, 103km
Updated: Mon, 21-Aug-2017 6:55am PDT
Clear
Clear
 Wind from SE
Wind: SE 9 mph , 15 km/h
Temperature: 63°F , 17°C
Dew Point: 55°F , 13°C
Humidity: 77%
Barometer: 29.93 inHg , 1013.5 hPa
Clouds: Clear
Visibility: 9 miles , 14 km
2017/08/21 13:55 KMCC 211355Z AUTO 14008KT 9SM CLR 17/13 A2993 RMK AO2
 
KSAC - Sacramento, California, USA
Distance from station: WNW 65mi, 104km
Updated: Mon, 21-Aug-2017 6:53am PDT
Clear
Clear
 Wind from SSW
Wind: SSW 10 mph , 17 km/h
Temperature: 63°F , 17°C
Dew Point: 57°F , 14°C
Humidity: 83%
Barometer: 29.91 inHg , 1012.9 hPa
Clouds: Clear
Visibility: 10 miles , 16 km
2017/08/21 13:53 KSAC 211353Z 20009KT 10SM CLR 17/14 A2991 RMK AO2 SLP128 T01670144
KMCE - Merced, California, USA
Distance from station: S 67mi, 108km
Updated: Mon, 21-Aug-2017 6:53am PDT
Clear
Clear
 Wind from NW
Wind: NW 9 mph , 15 km/h
Temperature: 64°F , 18°C
Dew Point: 57°F , 14°C
Humidity: 78%
Barometer: 29.91 inHg , 1012.9 hPa
Clouds: Clear
Visibility: 10 miles , 16 km
2017/08/21 13:53 KMCE 211353Z AUTO 31008KT 10SM CLR 18/14 A2991 RMK AO2 SLP127 T01830139
 
KLHM - Lincoln, California, USA
Distance from station: NW 71mi, 115km
Updated: Mon, 21-Aug-2017 6:55am PDT
Clear
Clear
 Wind from SSE
Wind: SSE 9 mph , 15 km/h
Temperature: 63°F , 17°C
Dew Point: 54°F , 12°C
Humidity: 73%
Barometer: 29.91 inHg , 1012.9 hPa
Clouds: Clear
Visibility: 10 miles , 16 km
2017/08/21 13:55 KLHM 211355Z AUTO 15008KT 10SM CLR 17/12 A2991 RMK AO1
KCXP - Carson City, Nevada, USA
Distance from station: NNE 72mi, 117km
Updated: Fri, 18-Aug-2017 2:35pm PDT
NOT Current
Haze, Clear
Haze, Clear
 Wind from SW
Wind: SW 6 mph , 9 km/h
Temperature: 93°F , 34°C
Dew Point: 32°F , 0°C
Humidity: 11%
Barometer: 30.13 inHg , 1020.3 hPa
Summary: Haze
Clouds: Clear
Visibility: 3 miles , 5 km
2017/08/18 21:35 KCXP 182135Z AUTO 23005KT 3SM HZ CLR 34/00 A3013 RMK AO2
 
KBLU - Emigrant Gap, California, USA
Distance from station: NNW 74mi, 119km
Updated: Mon, 21-Aug-2017 6:52am PDT
Clear
Clear
 Wind from SE
Wind: SE 3 mph , 6 km/h
Temperature: 64°F , 18°C
Dew Point: 48°F , 9°C
Humidity: 56%
Barometer: 30.17 inHg , 1021.7 hPa
Clouds: Clear
Visibility: 10 miles , 16 km
2017/08/21 13:52 KBLU 211352Z AUTO 14003KT 10SM CLR 18/09 A3017 RMK AO2 SLP127 T01780089 TSNO $
KSMF - Sacramento/Metro, California, USA
Distance from station: WNW 75mi, 120km
Updated: Mon, 21-Aug-2017 6:53am PDT
Few Clouds
Few Clouds
 Wind from SSE
Wind: SSE 9 mph , 15 km/h
Temperature: 63°F , 17°C
Dew Point: 57°F , 14°C
Humidity: 83%
Barometer: 29.90 inHg , 1012.5 hPa
Clouds: Few Clouds
Visibility: 10 miles , 16 km
Cloud details: Few Clouds 20000 ft
2017/08/21 13:53 KSMF 211353Z 15008KT 10SM FEW200 17/14 A2990 RMK AO2 SLP123 T01720139
 
KTRK - Truckee Tahoe, California, USA
Distance from station: N 75mi, 120km
Updated: Mon, 21-Aug-2017 6:45am PDT
Mist, Few clouds
Mist, Few clouds
 Wind from calm
Wind: Calm
Temperature: 46°F , 8°C
Dew Point: 46°F , 8°C
Humidity: 100%
Barometer: 30.24 inHg , 1024 hPa
Summary: Mist
Clouds: Few Clouds
Visibility: 10 miles , 16 km
Cloud details: Few Clouds 100 ft
Few Clouds 18000 ft
2017/08/21 13:45 KTRK 211345Z 00000KT 10SM BR FEW001 FEW180 08/08 A3024
KGOO - Grass Valley, California, USA
Distance from station: NNW 76mi, 122km
Updated: Fri, 05-May-2017 6:55am PDT
NOT Current
Clear
Clear
 Wind from SE
Wind: SE 3 mph , 6 km/h
Temperature: 59°F , 15°C
Dew Point: 46°F , 8°C
Humidity: 63%
Barometer: 29.93 inHg , 1013.5 hPa
Clouds: Clear
Visibility: 10 miles , 16 km
2017/05/05 13:55 KGOO 051355Z AUTO 14003KT 10SM CLR 15/08 A2993 RMK AO1

spacer wunderground wow PWS SWWN Image Map